sensor_id;sensor_type;location;lat;lon;timestamp;P1;durP1;ratioP1;P2;durP2;ratioP2
16826;SDS011;8530;49.540;8.576;2023-02-19T00:02:04;6.10;;;5.50;;
16826;SDS011;8530;49.540;8.576;2023-02-19T00:04:31;7.20;;;6.10;;
16826;SDS011;8530;49.540;8.576;2023-02-19T00:06:58;8.30;;;6.00;;
16826;SDS011;8530;49.540;8.576;2023-02-19T00:09:26;6.53;;;4.93;;
16826;SDS011;8530;49.540;8.576;2023-02-19T00:11:53;7.30;;;6.00;;
16826;SDS011;8530;49.540;8.576;2023-02-19T00:14:20;6.63;;;6.03;;
16826;SDS011;8530;49.540;8.576;2023-02-19T00:16:47;5.60;;;5.03;;
16826;SDS011;8530;49.540;8.576;2023-02-19T00:19:14;6.00;;;5.50;;
16826;SDS011;8530;49.540;8.576;2023-02-19T00:21:42;7.00;;;6.40;;
16826;SDS011;8530;49.540;8.576;2023-02-19T00:24:09;6.50;;;5.90;;
16826;SDS011;8530;49.540;8.576;2023-02-19T00:26:39;15.60;;;5.63;;
16826;SDS011;8530;49.540;8.576;2023-02-19T00:29:08;5.70;;;5.13;;
16826;SDS011;8530;49.540;8.576;2023-02-19T00:31:37;7.23;;;5.90;;
16826;SDS011;8530;49.540;8.576;2023-02-19T00:34:04;5.70;;;5.20;;
16826;SDS011;8530;49.540;8.576;2023-02-19T00:36:32;6.40;;;5.80;;
16826;SDS011;8530;49.540;8.576;2023-02-19T00:39:00;5.17;;;4.70;;
16826;SDS011;8530;49.540;8.576;2023-02-19T00:41:26;4.90;;;4.40;;
16826;SDS011;8530;49.540;8.576;2023-02-19T00:43:57;5.63;;;5.10;;
16826;SDS011;8530;49.540;8.576;2023-02-19T00:46:27;6.57;;;5.20;;
16826;SDS011;8530;49.540;8.576;2023-02-19T00:48:56;6.87;;;5.57;;
16826;SDS011;8530;49.540;8.576;2023-02-19T00:51:23;5.20;;;4.70;;
16826;SDS011;8530;49.540;8.576;2023-02-19T00:53:51;5.43;;;4.93;;
16826;SDS011;8530;49.540;8.576;2023-02-19T00:56:18;6.63;;;5.53;;
16826;SDS011;8530;49.540;8.576;2023-02-19T00:58:45;5.67;;;5.13;;
16826;SDS011;8530;49.540;8.576;2023-02-19T01:01:14;4.73;;;4.33;;
16826;SDS011;8530;49.540;8.576;2023-02-19T01:03:40;4.10;;;3.60;;
16826;SDS011;8530;49.540;8.576;2023-02-19T01:06:08;5.30;;;4.47;;
16826;SDS011;8530;49.540;8.576;2023-02-19T01:08:36;4.50;;;4.10;;
16826;SDS011;8530;49.540;8.576;2023-02-19T01:11:03;4.10;;;3.80;;
16826;SDS011;8530;49.540;8.576;2023-02-19T01:13:31;8.63;;;4.87;;
16826;SDS011;8530;49.540;8.576;2023-02-19T01:16:01;5.20;;;4.17;;
16826;SDS011;8530;49.540;8.576;2023-02-19T01:18:30;5.37;;;4.87;;
16826;SDS011;8530;49.540;8.576;2023-02-19T01:20:57;5.20;;;4.37;;
16826;SDS011;8530;49.540;8.576;2023-02-19T01:23:24;7.33;;;4.47;;
16826;SDS011;8530;49.540;8.576;2023-02-19T01:25:51;4.60;;;4.20;;
16826;SDS011;8530;49.540;8.576;2023-02-19T01:28:17;5.07;;;4.57;;
16826;SDS011;8530;49.540;8.576;2023-02-19T01:30:44;4.93;;;4.43;;
16826;SDS011;8530;49.540;8.576;2023-02-19T01:33:11;4.70;;;4.20;;
16826;SDS011;8530;49.540;8.576;2023-02-19T01:35:39;5.23;;;4.73;;
16826;SDS011;8530;49.540;8.576;2023-02-19T01:38:05;5.67;;;4.53;;
16826;SDS011;8530;49.540;8.576;2023-02-19T01:40:32;5.27;;;4.77;;
16826;SDS011;8530;49.540;8.576;2023-02-19T01:42:59;5.23;;;4.73;;
16826;SDS011;8530;49.540;8.576;2023-02-19T01:45:28;4.87;;;4.47;;
16826;SDS011;8530;49.540;8.576;2023-02-19T01:48:03;5.07;;;4.57;;
16826;SDS011;8530;49.540;8.576;2023-02-19T01:50:35;4.10;;;3.67;;
16826;SDS011;8530;49.540;8.576;2023-02-19T01:53:07;4.97;;;4.47;;
16826;SDS011;8530;49.540;8.576;2023-02-19T01:55:37;6.37;;;5.50;;
16826;SDS011;8530;49.540;8.576;2023-02-19T01:58:04;4.43;;;4.03;;
16826;SDS011;8530;49.540;8.576;2023-02-19T02:00:32;4.83;;;4.40;;
16826;SDS011;8530;49.540;8.576;2023-02-19T02:02:59;4.80;;;4.20;;
16826;SDS011;8530;49.540;8.576;2023-02-19T02:05:41;4.47;;;4.07;;
16826;SDS011;8530;49.540;8.576;2023-02-19T02:08:13;4.60;;;4.20;;
16826;SDS011;8530;49.540;8.576;2023-02-19T02:10:58;4.70;;;4.20;;
16826;SDS011;8530;49.540;8.576;2023-02-19T02:13:26;4.63;;;4.23;;
16826;SDS011;8530;49.540;8.576;2023-02-19T02:15:55;4.50;;;4.20;;
16826;SDS011;8530;49.540;8.576;2023-02-19T02:18:32;4.37;;;4.07;;
16826;SDS011;8530;49.540;8.576;2023-02-19T02:21:14;3.90;;;3.60;;
16826;SDS011;8530;49.540;8.576;2023-02-19T02:24:11;3.90;;;3.37;;
16826;SDS011;8530;49.540;8.576;2023-02-19T02:27:00;3.93;;;3.63;;
16826;SDS011;8530;49.540;8.576;2023-02-19T02:32:36;4.50;;;4.10;;
16826;SDS011;8530;49.540;8.576;2023-02-19T02:35:17;4.40;;;3.83;;
16826;SDS011;8530;49.540;8.576;2023-02-19T02:37:47;4.00;;;3.70;;
16826;SDS011;8530;49.540;8.576;2023-02-19T02:40:16;4.07;;;3.77;;
16826;SDS011;8530;49.540;8.576;2023-02-19T02:42:44;4.00;;;3.70;;
16826;SDS011;8530;49.540;8.576;2023-02-19T02:48:01;4.87;;;3.43;;
16826;SDS011;8530;49.540;8.576;2023-02-19T02:50:37;4.03;;;3.70;;
16826;SDS011;8530;49.540;8.576;2023-02-19T02:53:11;4.13;;;3.73;;
16826;SDS011;8530;49.540;8.576;2023-02-19T02:55:57;3.60;;;3.30;;
16826;SDS011;8530;49.540;8.576;2023-02-19T02:58:25;4.57;;;3.47;;
16826;SDS011;8530;49.540;8.576;2023-02-19T03:00:55;4.10;;;3.70;;
16826;SDS011;8530;49.540;8.576;2023-02-19T03:03:42;3.50;;;3.20;;
16826;SDS011;8530;49.540;8.576;2023-02-19T03:06:11;3.43;;;3.20;;
16826;SDS011;8530;49.540;8.576;2023-02-19T03:08:44;3.40;;;3.10;;
16826;SDS011;8530;49.540;8.576;2023-02-19T03:11:17;4.60;;;2.80;;
16826;SDS011;8530;49.540;8.576;2023-02-19T03:14:03;4.83;;;3.63;;
16826;SDS011;8530;49.540;8.576;2023-02-19T03:16:53;3.47;;;3.17;;
16826;SDS011;8530;49.540;8.576;2023-02-19T03:19:40;3.20;;;2.90;;
16826;SDS011;8530;49.540;8.576;2023-02-19T03:22:11;3.00;;;2.70;;
16826;SDS011;8530;49.540;8.576;2023-02-19T03:24:43;2.47;;;2.27;;
16826;SDS011;8530;49.540;8.576;2023-02-19T03:27:32;3.80;;;2.77;;
16826;SDS011;8530;49.540;8.576;2023-02-19T03:30:02;2.47;;;2.27;;
16826;SDS011;8530;49.540;8.576;2023-02-19T03:32:37;3.73;;;2.50;;
16826;SDS011;8530;49.540;8.576;2023-02-19T03:35:10;2.33;;;2.13;;
16826;SDS011;8530;49.540;8.576;2023-02-19T03:37:40;2.50;;;2.30;;
16826;SDS011;8530;49.540;8.576;2023-02-19T03:40:11;2.63;;;2.43;;
16826;SDS011;8530;49.540;8.576;2023-02-19T03:42:41;2.17;;;2.07;;
16826;SDS011;8530;49.540;8.576;2023-02-19T03:45:23;2.33;;;2.13;;
16826;SDS011;8530;49.540;8.576;2023-02-19T03:48:01;2.50;;;2.30;;
16826;SDS011;8530;49.540;8.576;2023-02-19T03:50:41;2.57;;;2.37;;
16826;SDS011;8530;49.540;8.576;2023-02-19T03:53:11;2.20;;;2.00;;
16826;SDS011;8530;49.540;8.576;2023-02-19T03:55:45;2.70;;;2.50;;
16826;SDS011;8530;49.540;8.576;2023-02-19T03:58:20;2.67;;;2.47;;
16826;SDS011;8530;49.540;8.576;2023-02-19T04:00:54;3.00;;;2.77;;
16826;SDS011;8530;49.540;8.576;2023-02-19T04:03:30;2.60;;;2.40;;
16826;SDS011;8530;49.540;8.576;2023-02-19T04:06:01;2.40;;;2.20;;
16826;SDS011;8530;49.540;8.576;2023-02-19T04:08:30;2.60;;;2.40;;
16826;SDS011;8530;49.540;8.576;2023-02-19T04:11:00;2.80;;;2.40;;
16826;SDS011;8530;49.540;8.576;2023-02-19T04:13:29;3.23;;;2.93;;
16826;SDS011;8530;49.540;8.576;2023-02-19T04:15:59;2.47;;;2.27;;
16826;SDS011;8530;49.540;8.576;2023-02-19T04:18:30;2.70;;;2.50;;
16826;SDS011;8530;49.540;8.576;2023-02-19T04:21:00;2.70;;;2.50;;
16826;SDS011;8530;49.540;8.576;2023-02-19T04:23:29;3.60;;;3.30;;
16826;SDS011;8530;49.540;8.576;2023-02-19T04:26:01;2.97;;;2.73;;
16826;SDS011;8530;49.540;8.576;2023-02-19T04:28:30;5.50;;;2.87;;
16826;SDS011;8530;49.540;8.576;2023-02-19T04:30:57;2.93;;;2.73;;
16826;SDS011;8530;49.540;8.576;2023-02-19T04:33:24;3.43;;;3.13;;
16826;SDS011;8530;49.540;8.576;2023-02-19T04:35:52;3.33;;;3.03;;
16826;SDS011;8530;49.540;8.576;2023-02-19T04:38:18;3.37;;;3.03;;
16826;SDS011;8530;49.540;8.576;2023-02-19T04:40:45;3.30;;;3.00;;
16826;SDS011;8530;49.540;8.576;2023-02-19T04:43:13;3.27;;;2.97;;
16826;SDS011;8530;49.540;8.576;2023-02-19T04:45:39;2.93;;;2.73;;
16826;SDS011;8530;49.540;8.576;2023-02-19T04:48:06;3.60;;;3.30;;
16826;SDS011;8530;49.540;8.576;2023-02-19T04:50:33;3.20;;;2.90;;
16826;SDS011;8530;49.540;8.576;2023-02-19T04:53:05;3.80;;;3.50;;
16826;SDS011;8530;49.540;8.576;2023-02-19T04:55:31;3.80;;;3.40;;
16826;SDS011;8530;49.540;8.576;2023-02-19T04:58:01;3.77;;;3.47;;
16826;SDS011;8530;49.540;8.576;2023-02-19T05:00:28;4.37;;;3.80;;
16826;SDS011;8530;49.540;8.576;2023-02-19T05:02:55;4.17;;;3.80;;
16826;SDS011;8530;49.540;8.576;2023-02-19T05:05:22;3.73;;;3.43;;
16826;SDS011;8530;49.540;8.576;2023-02-19T05:07:48;3.30;;;3.00;;
16826;SDS011;8530;49.540;8.576;2023-02-19T05:10:16;4.43;;;4.03;;
16826;SDS011;8530;49.540;8.576;2023-02-19T05:12:43;4.77;;;4.33;;
16826;SDS011;8530;49.540;8.576;2023-02-19T05:15:10;4.23;;;3.93;;
16826;SDS011;8530;49.540;8.576;2023-02-19T05:17:36;4.10;;;3.70;;
16826;SDS011;8530;49.540;8.576;2023-02-19T05:20:03;4.40;;;4.00;;
16826;SDS011;8530;49.540;8.576;2023-02-19T05:22:30;5.13;;;4.73;;
16826;SDS011;8530;49.540;8.576;2023-02-19T05:24:57;5.60;;;5.00;;
16826;SDS011;8530;49.540;8.576;2023-02-19T05:27:25;5.23;;;4.73;;
16826;SDS011;8530;49.540;8.576;2023-02-19T05:29:51;5.87;;;5.20;;
16826;SDS011;8530;49.540;8.576;2023-02-19T05:32:18;8.10;;;5.10;;
16826;SDS011;8530;49.540;8.576;2023-02-19T05:34:45;5.80;;;5.30;;
16826;SDS011;8530;49.540;8.576;2023-02-19T05:37:11;5.33;;;4.83;;
16826;SDS011;8530;49.540;8.576;2023-02-19T05:39:38;6.20;;;5.00;;
16826;SDS011;8530;49.540;8.576;2023-02-19T05:42:05;6.90;;;5.23;;
16826;SDS011;8530;49.540;8.576;2023-02-19T05:44:33;5.43;;;4.90;;
16826;SDS011;8530;49.540;8.576;2023-02-19T05:46:59;6.23;;;5.63;;
16826;SDS011;8530;49.540;8.576;2023-02-19T05:49:26;5.47;;;5.00;;
16826;SDS011;8530;49.540;8.576;2023-02-19T05:51:53;6.07;;;5.57;;
16826;SDS011;8530;49.540;8.576;2023-02-19T05:54:19;5.57;;;5.07;;
16826;SDS011;8530;49.540;8.576;2023-02-19T05:56:46;10.23;;;4.70;;
16826;SDS011;8530;49.540;8.576;2023-02-19T05:59:14;6.67;;;5.97;;
16826;SDS011;8530;49.540;8.576;2023-02-19T06:01:43;7.87;;;5.80;;
16826;SDS011;8530;49.540;8.576;2023-02-19T06:04:10;5.40;;;4.90;;
16826;SDS011;8530;49.540;8.576;2023-02-19T06:06:38;5.00;;;4.30;;
16826;SDS011;8530;49.540;8.576;2023-02-19T06:09:05;6.27;;;5.67;;
16826;SDS011;8530;49.540;8.576;2023-02-19T06:11:33;6.50;;;5.80;;
16826;SDS011;8530;49.540;8.576;2023-02-19T06:14:00;6.70;;;6.00;;
16826;SDS011;8530;49.540;8.576;2023-02-19T06:16:27;6.20;;;5.67;;
16826;SDS011;8530;49.540;8.576;2023-02-19T06:18:57;7.20;;;6.10;;
16826;SDS011;8530;49.540;8.576;2023-02-19T06:21:24;6.20;;;5.53;;
16826;SDS011;8530;49.540;8.576;2023-02-19T06:23:50;7.13;;;6.37;;
16826;SDS011;8530;49.540;8.576;2023-02-19T06:26:18;6.30;;;5.70;;
16826;SDS011;8530;49.540;8.576;2023-02-19T06:28:46;6.13;;;5.53;;
16826;SDS011;8530;49.540;8.576;2023-02-19T06:31:14;5.93;;;5.43;;
16826;SDS011;8530;49.540;8.576;2023-02-19T06:33:41;7.60;;;5.97;;
16826;SDS011;8530;49.540;8.576;2023-02-19T06:36:11;6.23;;;5.73;;
16826;SDS011;8530;49.540;8.576;2023-02-19T06:38:39;6.97;;;6.33;;
16826;SDS011;8530;49.540;8.576;2023-02-19T06:41:06;5.93;;;5.33;;
16826;SDS011;8530;49.540;8.576;2023-02-19T06:43:33;12.43;;;5.23;;
16826;SDS011;8530;49.540;8.576;2023-02-19T06:46:00;6.40;;;5.37;;
16826;SDS011;8530;49.540;8.576;2023-02-19T06:48:29;6.07;;;5.47;;
16826;SDS011;8530;49.540;8.576;2023-02-19T06:50:57;5.97;;;5.47;;
16826;SDS011;8530;49.540;8.576;2023-02-19T06:53:25;6.60;;;5.90;;
16826;SDS011;8530;49.540;8.576;2023-02-19T06:55:55;6.93;;;6.30;;
16826;SDS011;8530;49.540;8.576;2023-02-19T06:58:23;12.13;;;5.90;;
16826;SDS011;8530;49.540;8.576;2023-02-19T07:00:49;6.53;;;5.93;;
16826;SDS011;8530;49.540;8.576;2023-02-19T07:03:16;6.07;;;5.47;;
16826;SDS011;8530;49.540;8.576;2023-02-19T07:05:43;6.43;;;5.50;;
16826;SDS011;8530;49.540;8.576;2023-02-19T07:08:10;8.20;;;6.33;;
16826;SDS011;8530;49.540;8.576;2023-02-19T07:10:38;6.60;;;6.00;;
16826;SDS011;8530;49.540;8.576;2023-02-19T07:13:05;7.10;;;6.40;;
16826;SDS011;8530;49.540;8.576;2023-02-19T07:15:32;7.03;;;5.50;;
16826;SDS011;8530;49.540;8.576;2023-02-19T07:17:58;6.47;;;5.83;;
16826;SDS011;8530;49.540;8.576;2023-02-19T07:20:25;6.20;;;5.60;;
16826;SDS011;8530;49.540;8.576;2023-02-19T07:22:52;8.33;;;5.63;;
16826;SDS011;8530;49.540;8.576;2023-02-19T07:25:18;6.97;;;6.27;;
16826;SDS011;8530;49.540;8.576;2023-02-19T07:27:47;6.53;;;5.93;;
16826;SDS011;8530;49.540;8.576;2023-02-19T07:30:13;6.20;;;5.63;;
16826;SDS011;8530;49.540;8.576;2023-02-19T07:32:40;6.87;;;6.17;;
16826;SDS011;8530;49.540;8.576;2023-02-19T07:35:09;5.80;;;5.30;;
16826;SDS011;8530;49.540;8.576;2023-02-19T07:37:36;7.37;;;6.63;;
16826;SDS011;8530;49.540;8.576;2023-02-19T07:40:03;7.37;;;6.67;;
16826;SDS011;8530;49.540;8.576;2023-02-19T07:42:30;8.23;;;7.37;;
16826;SDS011;8530;49.540;8.576;2023-02-19T07:44:58;9.33;;;8.00;;
16826;SDS011;8530;49.540;8.576;2023-02-19T07:47:25;13.73;;;9.63;;
16826;SDS011;8530;49.540;8.576;2023-02-19T07:49:52;7.63;;;6.73;;
16826;SDS011;8530;49.540;8.576;2023-02-19T07:52:18;8.53;;;7.57;;
16826;SDS011;8530;49.540;8.576;2023-02-19T07:54:45;7.63;;;6.93;;
16826;SDS011;8530;49.540;8.576;2023-02-19T07:57:12;7.43;;;6.10;;
16826;SDS011;8530;49.540;8.576;2023-02-19T07:59:38;6.13;;;5.57;;
16826;SDS011;8530;49.540;8.576;2023-02-19T08:02:09;8.60;;;7.57;;
16826;SDS011;8530;49.540;8.576;2023-02-19T08:04:57;9.57;;;6.10;;
16826;SDS011;8530;49.540;8.576;2023-02-19T08:07:29;11.90;;;5.57;;
16826;SDS011;8530;49.540;8.576;2023-02-19T08:09:56;10.20;;;6.47;;
16826;SDS011;8530;49.540;8.576;2023-02-19T08:12:47;5.03;;;4.20;;
16826;SDS011;8530;49.540;8.576;2023-02-19T08:15:37;7.43;;;4.90;;
16826;SDS011;8530;49.540;8.576;2023-02-19T08:20:34;5.73;;;3.87;;
16826;SDS011;8530;49.540;8.576;2023-02-19T08:23:01;7.63;;;3.70;;
16826;SDS011;8530;49.540;8.576;2023-02-19T08:25:28;5.00;;;3.50;;
16826;SDS011;8530;49.540;8.576;2023-02-19T08:27:55;7.53;;;3.83;;
16826;SDS011;8530;49.540;8.576;2023-02-19T08:30:24;3.70;;;3.40;;
16826;SDS011;8530;49.540;8.576;2023-02-19T08:32:51;5.13;;;4.10;;
16826;SDS011;8530;49.540;8.576;2023-02-19T08:35:18;9.53;;;4.90;;
16826;SDS011;8530;49.540;8.576;2023-02-19T08:37:46;6.53;;;4.40;;
16826;SDS011;8530;49.540;8.576;2023-02-19T08:40:13;5.60;;;4.87;;
16826;SDS011;8530;49.540;8.576;2023-02-19T08:42:39;8.87;;;4.50;;
16826;SDS011;8530;49.540;8.576;2023-02-19T08:45:07;4.30;;;3.90;;
16826;SDS011;8530;49.540;8.576;2023-02-19T08:47:34;4.50;;;3.97;;
16826;SDS011;8530;49.540;8.576;2023-02-19T08:50:02;4.33;;;3.43;;
16826;SDS011;8530;49.540;8.576;2023-02-19T08:52:29;5.53;;;4.23;;
16826;SDS011;8530;49.540;8.576;2023-02-19T08:54:57;7.77;;;4.87;;
16826;SDS011;8530;49.540;8.576;2023-02-19T08:57:24;5.10;;;3.60;;
16826;SDS011;8530;49.540;8.576;2023-02-19T08:59:53;5.30;;;3.47;;
16826;SDS011;8530;49.540;8.576;2023-02-19T09:02:19;4.60;;;4.10;;
16826;SDS011;8530;49.540;8.576;2023-02-19T09:04:46;9.57;;;3.87;;
16826;SDS011;8530;49.540;8.576;2023-02-19T09:07:13;8.20;;;3.67;;
16826;SDS011;8530;49.540;8.576;2023-02-19T09:09:40;7.73;;;3.70;;
16826;SDS011;8530;49.540;8.576;2023-02-19T09:12:09;5.13;;;2.83;;
16826;SDS011;8530;49.540;8.576;2023-02-19T09:14:37;7.00;;;3.80;;
16826;SDS011;8530;49.540;8.576;2023-02-19T09:17:04;9.53;;;3.97;;
16826;SDS011;8530;49.540;8.576;2023-02-19T09:19:32;4.47;;;3.03;;
16826;SDS011;8530;49.540;8.576;2023-02-19T09:21:59;6.20;;;3.43;;
16826;SDS011;8530;49.540;8.576;2023-02-19T09:24:27;7.30;;;3.40;;
16826;SDS011;8530;49.540;8.576;2023-02-19T09:26:54;6.00;;;3.77;;
16826;SDS011;8530;49.540;8.576;2023-02-19T09:29:22;6.40;;;3.33;;
16826;SDS011;8530;49.540;8.576;2023-02-19T09:31:54;4.47;;;2.90;;
16826;SDS011;8530;49.540;8.576;2023-02-19T09:34:22;11.30;;;3.57;;
16826;SDS011;8530;49.540;8.576;2023-02-19T09:36:49;8.67;;;4.07;;
16826;SDS011;8530;49.540;8.576;2023-02-19T09:39:16;4.40;;;3.57;;
16826;SDS011;8530;49.540;8.576;2023-02-19T09:41:43;8.33;;;4.10;;
16826;SDS011;8530;49.540;8.576;2023-02-19T09:44:13;7.33;;;3.70;;
16826;SDS011;8530;49.540;8.576;2023-02-19T09:46:50;6.23;;;3.90;;
16826;SDS011;8530;49.540;8.576;2023-02-19T09:49:19;4.43;;;3.57;;
16826;SDS011;8530;49.540;8.576;2023-02-19T09:51:50;6.90;;;3.63;;
16826;SDS011;8530;49.540;8.576;2023-02-19T09:54:20;3.73;;;2.70;;
16826;SDS011;8530;49.540;8.576;2023-02-19T09:56:49;3.53;;;2.90;;
16826;SDS011;8530;49.540;8.576;2023-02-19T09:59:18;3.67;;;2.97;;
16826;SDS011;8530;49.540;8.576;2023-02-19T10:01:51;4.00;;;2.90;;
16826;SDS011;8530;49.540;8.576;2023-02-19T10:04:22;3.83;;;2.90;;
16826;SDS011;8530;49.540;8.576;2023-02-19T10:06:49;8.53;;;3.20;;
16826;SDS011;8530;49.540;8.576;2023-02-19T10:09:18;4.67;;;2.67;;
16826;SDS011;8530;49.540;8.576;2023-02-19T10:11:48;7.83;;;3.40;;
16826;SDS011;8530;49.540;8.576;2023-02-19T10:14:17;6.40;;;4.80;;
16826;SDS011;8530;49.540;8.576;2023-02-19T10:16:50;8.43;;;3.47;;
16826;SDS011;8530;49.540;8.576;2023-02-19T10:19:18;5.97;;;3.70;;
16826;SDS011;8530;49.540;8.576;2023-02-19T10:21:45;5.23;;;2.83;;
16826;SDS011;8530;49.540;8.576;2023-02-19T10:24:13;5.80;;;3.13;;
16826;SDS011;8530;49.540;8.576;2023-02-19T10:26:52;8.27;;;3.93;;
16826;SDS011;8530;49.540;8.576;2023-02-19T10:29:19;4.80;;;3.10;;
16826;SDS011;8530;49.540;8.576;2023-02-19T10:31:48;9.83;;;3.50;;
16826;SDS011;8530;49.540;8.576;2023-02-19T10:34:36;11.83;;;3.00;;
16826;SDS011;8530;49.540;8.576;2023-02-19T10:37:03;6.13;;;3.70;;
16826;SDS011;8530;49.540;8.576;2023-02-19T10:39:38;7.20;;;3.07;;
16826;SDS011;8530;49.540;8.576;2023-02-19T10:42:14;3.50;;;2.67;;
16826;SDS011;8530;49.540;8.576;2023-02-19T10:44:43;2.73;;;2.50;;
16826;SDS011;8530;49.540;8.576;2023-02-19T10:47:15;3.20;;;2.50;;
16826;SDS011;8530;49.540;8.576;2023-02-19T10:49:46;6.00;;;2.87;;
16826;SDS011;8530;49.540;8.576;2023-02-19T10:52:15;7.87;;;2.90;;
16826;SDS011;8530;49.540;8.576;2023-02-19T10:54:45;3.10;;;2.17;;
16826;SDS011;8530;49.540;8.576;2023-02-19T10:57:28;6.70;;;3.37;;
16826;SDS011;8530;49.540;8.576;2023-02-19T10:59:57;5.10;;;2.67;;
16826;SDS011;8530;49.540;8.576;2023-02-19T11:02:26;13.53;;;3.07;;
16826;SDS011;8530;49.540;8.576;2023-02-19T11:05:14;3.57;;;2.50;;
16826;SDS011;8530;49.540;8.576;2023-02-19T11:07:44;4.90;;;2.87;;
16826;SDS011;8530;49.540;8.576;2023-02-19T11:13:03;9.50;;;3.93;;
16826;SDS011;8530;49.540;8.576;2023-02-19T11:15:33;3.97;;;2.83;;
16826;SDS011;8530;49.540;8.576;2023-02-19T11:18:02;13.00;;;3.30;;
16826;SDS011;8530;49.540;8.576;2023-02-19T11:20:34;5.70;;;2.90;;
16826;SDS011;8530;49.540;8.576;2023-02-19T11:23:03;5.23;;;3.20;;
16826;SDS011;8530;49.540;8.576;2023-02-19T11:25:42;4.97;;;3.13;;
16826;SDS011;8530;49.540;8.576;2023-02-19T11:28:18;4.40;;;3.00;;
16826;SDS011;8530;49.540;8.576;2023-02-19T11:30:48;5.30;;;2.93;;
16826;SDS011;8530;49.540;8.576;2023-02-19T11:39:20;7.53;;;2.83;;
16826;SDS011;8530;49.540;8.576;2023-02-19T11:41:57;8.83;;;2.57;;
16826;SDS011;8530;49.540;8.576;2023-02-19T11:44:34;6.80;;;3.20;;
16826;SDS011;8530;49.540;8.576;2023-02-19T11:47:23;2.97;;;2.03;;
16826;SDS011;8530;49.540;8.576;2023-02-19T11:49:58;2.90;;;2.00;;
16826;SDS011;8530;49.540;8.576;2023-02-19T11:52:34;3.07;;;2.53;;
16826;SDS011;8530;49.540;8.576;2023-02-19T11:55:10;4.70;;;2.63;;
16826;SDS011;8530;49.540;8.576;2023-02-19T11:57:44;4.90;;;2.67;;
16826;SDS011;8530;49.540;8.576;2023-02-19T12:00:23;5.17;;;2.27;;
16826;SDS011;8530;49.540;8.576;2023-02-19T12:05:57;6.20;;;3.43;;
16826;SDS011;8530;49.540;8.576;2023-02-19T12:08:39;11.43;;;3.00;;
16826;SDS011;8530;49.540;8.576;2023-02-19T12:14:37;7.43;;;2.80;;
16826;SDS011;8530;49.540;8.576;2023-02-19T12:17:23;3.20;;;2.30;;
16826;SDS011;8530;49.540;8.576;2023-02-19T12:20:08;4.03;;;2.57;;
16826;SDS011;8530;49.540;8.576;2023-02-19T12:22:43;12.37;;;4.40;;
16826;SDS011;8530;49.540;8.576;2023-02-19T12:28:29;4.30;;;2.70;;
16826;SDS011;8530;49.540;8.576;2023-02-19T12:31:29;6.97;;;3.80;;
16826;SDS011;8530;49.540;8.576;2023-02-19T12:34:26;3.30;;;2.30;;
16826;SDS011;8530;49.540;8.576;2023-02-19T12:37:08;8.30;;;2.80;;
16826;SDS011;8530;49.540;8.576;2023-02-19T12:39:44;6.17;;;2.90;;
16826;SDS011;8530;49.540;8.576;2023-02-19T12:42:20;5.13;;;3.07;;
16826;SDS011;8530;49.540;8.576;2023-02-19T12:44:59;4.50;;;2.30;;
16826;SDS011;8530;49.540;8.576;2023-02-19T12:47:31;3.20;;;2.33;;
16826;SDS011;8530;49.540;8.576;2023-02-19T12:50:06;4.20;;;2.10;;
16826;SDS011;8530;49.540;8.576;2023-02-19T12:52:42;4.90;;;2.53;;
16826;SDS011;8530;49.540;8.576;2023-02-19T12:55:17;4.20;;;2.73;;
16826;SDS011;8530;49.540;8.576;2023-02-19T12:57:46;6.70;;;2.70;;
16826;SDS011;8530;49.540;8.576;2023-02-19T13:00:22;9.30;;;2.97;;
16826;SDS011;8530;49.540;8.576;2023-02-19T13:02:57;7.73;;;3.73;;
16826;SDS011;8530;49.540;8.576;2023-02-19T13:05:31;5.13;;;3.30;;
16826;SDS011;8530;49.540;8.576;2023-02-19T13:08:06;4.93;;;3.10;;
16826;SDS011;8530;49.540;8.576;2023-02-19T13:10:41;5.67;;;2.93;;
16826;SDS011;8530;49.540;8.576;2023-02-19T13:13:12;6.70;;;3.00;;
16826;SDS011;8530;49.540;8.576;2023-02-19T13:15:46;4.37;;;2.80;;
16826;SDS011;8530;49.540;8.576;2023-02-19T13:18:17;6.83;;;3.23;;
16826;SDS011;8530;49.540;8.576;2023-02-19T13:20:46;6.10;;;3.33;;
16826;SDS011;8530;49.540;8.576;2023-02-19T13:23:16;17.63;;;3.30;;
16826;SDS011;8530;49.540;8.576;2023-02-19T13:26:08;3.87;;;2.23;;
16826;SDS011;8530;49.540;8.576;2023-02-19T13:28:49;7.80;;;2.73;;
16826;SDS011;8530;49.540;8.576;2023-02-19T13:31:36;3.63;;;3.00;;
16826;SDS011;8530;49.540;8.576;2023-02-19T13:34:15;4.70;;;2.57;;
16826;SDS011;8530;49.540;8.576;2023-02-19T13:36:49;8.93;;;3.63;;
16826;SDS011;8530;49.540;8.576;2023-02-19T13:39:17;7.03;;;3.70;;
16826;SDS011;8530;49.540;8.576;2023-02-19T13:41:48;4.40;;;2.27;;
16826;SDS011;8530;49.540;8.576;2023-02-19T13:44:17;8.90;;;3.03;;
16826;SDS011;8530;49.540;8.576;2023-02-19T13:46:47;6.03;;;2.87;;
16826;SDS011;8530;49.540;8.576;2023-02-19T13:49:36;4.67;;;2.20;;
16826;SDS011;8530;49.540;8.576;2023-02-19T14:04:42;5.23;;;2.93;;
16826;SDS011;8530;49.540;8.576;2023-02-19T14:16:31;6.80;;;2.90;;
16826;SDS011;8530;49.540;8.576;2023-02-19T14:22:46;4.23;;;2.13;;
16826;SDS011;8530;49.540;8.576;2023-02-19T14:25:35;2.53;;;1.73;;
16826;SDS011;8530;49.540;8.576;2023-02-19T14:28:19;3.33;;;2.20;;
16826;SDS011;8530;49.540;8.576;2023-02-19T14:31:01;4.50;;;2.50;;
16826;SDS011;8530;49.540;8.576;2023-02-19T14:33:35;3.80;;;2.03;;
16826;SDS011;8530;49.540;8.576;2023-02-19T14:36:05;4.60;;;2.40;;
16826;SDS011;8530;49.540;8.576;2023-02-19T14:38:43;5.33;;;2.27;;
16826;SDS011;8530;49.540;8.576;2023-02-19T14:41:13;5.63;;;3.40;;
16826;SDS011;8530;49.540;8.576;2023-02-19T14:43:41;5.23;;;3.07;;
16826;SDS011;8530;49.540;8.576;2023-02-19T14:46:13;6.03;;;3.90;;
16826;SDS011;8530;49.540;8.576;2023-02-19T14:48:43;4.50;;;3.07;;
16826;SDS011;8530;49.540;8.576;2023-02-19T14:51:13;5.33;;;2.90;;
16826;SDS011;8530;49.540;8.576;2023-02-19T14:53:49;9.23;;;3.53;;
16826;SDS011;8530;49.540;8.576;2023-02-19T14:56:18;5.63;;;2.20;;
16826;SDS011;8530;49.540;8.576;2023-02-19T15:01:52;3.33;;;2.80;;
16826;SDS011;8530;49.540;8.576;2023-02-19T15:04:24;7.50;;;3.00;;
16826;SDS011;8530;49.540;8.576;2023-02-19T15:06:52;5.73;;;3.40;;
16826;SDS011;8530;49.540;8.576;2023-02-19T15:09:24;5.10;;;3.00;;
16826;SDS011;8530;49.540;8.576;2023-02-19T15:11:56;7.47;;;3.60;;
16826;SDS011;8530;49.540;8.576;2023-02-19T15:14:24;4.80;;;3.13;;
16826;SDS011;8530;49.540;8.576;2023-02-19T15:16:55;9.73;;;4.33;;
16826;SDS011;8530;49.540;8.576;2023-02-19T15:19:25;6.20;;;3.10;;
16826;SDS011;8530;49.540;8.576;2023-02-19T15:21:53;5.53;;;3.20;;
16826;SDS011;8530;49.540;8.576;2023-02-19T15:24:20;7.03;;;3.03;;
16826;SDS011;8530;49.540;8.576;2023-02-19T15:26:49;6.67;;;3.00;;
16826;SDS011;8530;49.540;8.576;2023-02-19T15:29:19;7.77;;;3.97;;
16826;SDS011;8530;49.540;8.576;2023-02-19T15:31:47;3.47;;;3.10;;
16826;SDS011;8530;49.540;8.576;2023-02-19T15:34:17;3.73;;;2.73;;
16826;SDS011;8530;49.540;8.576;2023-02-19T15:36:45;11.30;;;4.60;;
16826;SDS011;8530;49.540;8.576;2023-02-19T15:39:15;7.27;;;3.53;;
16826;SDS011;8530;49.540;8.576;2023-02-19T15:41:51;4.87;;;3.50;;
16826;SDS011;8530;49.540;8.576;2023-02-19T15:44:25;8.33;;;3.77;;
16826;SDS011;8530;49.540;8.576;2023-02-19T15:46:56;8.60;;;4.00;;
16826;SDS011;8530;49.540;8.576;2023-02-19T15:49:30;9.80;;;4.53;;
16826;SDS011;8530;49.540;8.576;2023-02-19T15:52:04;4.70;;;3.53;;
16826;SDS011;8530;49.540;8.576;2023-02-19T15:54:35;8.13;;;3.47;;
16826;SDS011;8530;49.540;8.576;2023-02-19T15:57:13;7.80;;;3.53;;
16826;SDS011;8530;49.540;8.576;2023-02-19T15:59:43;3.10;;;2.80;;
16826;SDS011;8530;49.540;8.576;2023-02-19T16:02:14;7.70;;;2.27;;
16826;SDS011;8530;49.540;8.576;2023-02-19T16:04:42;6.47;;;2.23;;
16826;SDS011;8530;49.540;8.576;2023-02-19T16:07:19;4.97;;;2.73;;
16826;SDS011;8530;49.540;8.576;2023-02-19T16:09:48;9.43;;;3.20;;
16826;SDS011;8530;49.540;8.576;2023-02-19T16:12:31;5.80;;;2.60;;
16826;SDS011;8530;49.540;8.576;2023-02-19T16:14:57;3.07;;;2.73;;
16826;SDS011;8530;49.540;8.576;2023-02-19T16:17:24;5.73;;;2.77;;
16826;SDS011;8530;49.540;8.576;2023-02-19T16:19:52;7.63;;;3.33;;